sensor_id;sensor_type;location;lat;lon;timestamp;temperature;humidity
30381;DHT22;17169;50.966;11.038;2023-03-05T00:02:31;3.60;99.90
30381;DHT22;17169;50.966;11.038;2023-03-05T00:05:33;3.60;99.90
30381;DHT22;17169;50.966;11.038;2023-03-05T00:08:37;3.50;99.90
30381;DHT22;17169;50.966;11.038;2023-03-05T00:11:40;3.50;99.90
30381;DHT22;17169;50.966;11.038;2023-03-05T00:14:42;3.60;99.90
30381;DHT22;17169;50.966;11.038;2023-03-05T00:17:44;3.60;99.90
30381;DHT22;17169;50.966;11.038;2023-03-05T00:20:47;3.60;99.90
30381;DHT22;17169;50.966;11.038;2023-03-05T00:23:51;3.60;99.90
30381;DHT22;17169;50.966;11.038;2023-03-05T00:26:54;3.60;99.90
30381;DHT22;17169;50.966;11.038;2023-03-05T00:29:56;3.70;99.90
30381;DHT22;17169;50.966;11.038;2023-03-05T00:32:58;3.70;99.90
30381;DHT22;17169;50.966;11.038;2023-03-05T00:36:04;3.70;99.90
30381;DHT22;17169;50.966;11.038;2023-03-05T00:39:09;3.80;99.90
30381;DHT22;17169;50.966;11.038;2023-03-05T00:42:11;3.80;99.90
30381;DHT22;17169;50.966;11.038;2023-03-05T00:45:13;3.70;99.90
30381;DHT22;17169;50.966;11.038;2023-03-05T00:48:16;3.60;99.90
30381;DHT22;17169;50.966;11.038;2023-03-05T00:51:18;3.60;99.90
30381;DHT22;17169;50.966;11.038;2023-03-05T00:54:22;3.60;99.90
30381;DHT22;17169;50.966;11.038;2023-03-05T00:57:24;3.70;99.90
30381;DHT22;17169;50.966;11.038;2023-03-05T01:00:26;3.60;99.90
30381;DHT22;17169;50.966;11.038;2023-03-05T01:03:31;3.60;99.90
30381;DHT22;17169;50.966;11.038;2023-03-05T01:06:33;3.50;99.90
30381;DHT22;17169;50.966;11.038;2023-03-05T01:09:37;3.40;99.90
30381;DHT22;17169;50.966;11.038;2023-03-05T01:12:39;3.40;99.90
30381;DHT22;17169;50.966;11.038;2023-03-05T01:15:42;3.40;99.90
30381;DHT22;17169;50.966;11.038;2023-03-05T01:18:44;3.40;99.90
30381;DHT22;17169;50.966;11.038;2023-03-05T01:21:46;3.50;99.90
30381;DHT22;17169;50.966;11.038;2023-03-05T01:24:50;3.40;99.90
30381;DHT22;17169;50.966;11.038;2023-03-05T01:27:52;3.50;99.90
30381;DHT22;17169;50.966;11.038;2023-03-05T01:30:55;3.40;99.90
30381;DHT22;17169;50.966;11.038;2023-03-05T01:33:57;3.50;99.90
30381;DHT22;17169;50.966;11.038;2023-03-05T01:37:00;3.50;99.90
30381;DHT22;17169;50.966;11.038;2023-03-05T01:40:05;3.50;99.90
30381;DHT22;17169;50.966;11.038;2023-03-05T01:43:18;3.50;99.90
30381;DHT22;17169;50.966;11.038;2023-03-05T01:46:31;3.50;99.90
30381;DHT22;17169;50.966;11.038;2023-03-05T01:49:35;3.50;99.90
30381;DHT22;17169;50.966;11.038;2023-03-05T01:52:41;3.50;99.90
30381;DHT22;17169;50.966;11.038;2023-03-05T01:55:46;3.50;99.90
30381;DHT22;17169;50.966;11.038;2023-03-05T01:58:49;3.50;99.90
30381;DHT22;17169;50.966;11.038;2023-03-05T02:01:55;3.50;99.90
30381;DHT22;17169;50.966;11.038;2023-03-05T02:05:02;3.50;99.90
30381;DHT22;17169;50.966;11.038;2023-03-05T02:08:07;3.50;99.90
30381;DHT22;17169;50.966;11.038;2023-03-05T02:11:11;3.40;99.90
30381;DHT22;17169;50.966;11.038;2023-03-05T02:14:14;3.50;99.90
30381;DHT22;17169;50.966;11.038;2023-03-05T02:17:16;3.50;99.90
30381;DHT22;17169;50.966;11.038;2023-03-05T02:20:22;3.50;99.90
30381;DHT22;17169;50.966;11.038;2023-03-05T02:23:28;3.50;99.90
30381;DHT22;17169;50.966;11.038;2023-03-05T02:26:32;3.40;99.90
30381;DHT22;17169;50.966;11.038;2023-03-05T02:29:38;3.40;99.90
30381;DHT22;17169;50.966;11.038;2023-03-05T02:32:41;3.30;99.90
30381;DHT22;17169;50.966;11.038;2023-03-05T02:35:44;3.30;99.90
30381;DHT22;17169;50.966;11.038;2023-03-05T02:38:48;3.40;99.90
30381;DHT22;17169;50.966;11.038;2023-03-05T02:41:52;3.40;99.90
30381;DHT22;17169;50.966;11.038;2023-03-05T02:44:55;3.40;99.90
30381;DHT22;17169;50.966;11.038;2023-03-05T02:47:57;3.40;99.90
30381;DHT22;17169;50.966;11.038;2023-03-05T02:51:00;3.40;99.90
30381;DHT22;17169;50.966;11.038;2023-03-05T02:54:04;3.40;99.90
30381;DHT22;17169;50.966;11.038;2023-03-05T02:57:07;3.30;99.90
30381;DHT22;17169;50.966;11.038;2023-03-05T03:00:10;3.40;99.90
30381;DHT22;17169;50.966;11.038;2023-03-05T03:03:13;3.40;99.90
30381;DHT22;17169;50.966;11.038;2023-03-05T03:06:15;3.40;99.90
30381;DHT22;17169;50.966;11.038;2023-03-05T03:09:19;3.40;99.90
30381;DHT22;17169;50.966;11.038;2023-03-05T03:12:21;3.40;99.90
30381;DHT22;17169;50.966;11.038;2023-03-05T03:15:24;3.40;99.90
30381;DHT22;17169;50.966;11.038;2023-03-05T03:18:26;3.40;99.90
30381;DHT22;17169;50.966;11.038;2023-03-05T03:21:28;3.30;99.90
30381;DHT22;17169;50.966;11.038;2023-03-05T03:24:33;3.30;99.90
30381;DHT22;17169;50.966;11.038;2023-03-05T03:27:36;3.30;99.90
30381;DHT22;17169;50.966;11.038;2023-03-05T03:30:38;3.30;99.90
30381;DHT22;17169;50.966;11.038;2023-03-05T03:33:41;3.30;99.90
30381;DHT22;17169;50.966;11.038;2023-03-05T03:36:44;3.30;99.90
30381;DHT22;17169;50.966;11.038;2023-03-05T03:39:48;3.20;99.90
30381;DHT22;17169;50.966;11.038;2023-03-05T03:42:50;3.20;99.90
30381;DHT22;17169;50.966;11.038;2023-03-05T03:45:53;3.20;99.90
30381;DHT22;17169;50.966;11.038;2023-03-05T03:48:55;3.20;99.90
30381;DHT22;17169;50.966;11.038;2023-03-05T03:51:57;3.20;99.90
30381;DHT22;17169;50.966;11.038;2023-03-05T03:55:01;3.20;99.90
30381;DHT22;17169;50.966;11.038;2023-03-05T03:58:04;3.20;99.90
30381;DHT22;17169;50.966;11.038;2023-03-05T04:01:06;3.20;99.90
30381;DHT22;17169;50.966;11.038;2023-03-05T04:04:09;3.20;99.90
30381;DHT22;17169;50.966;11.038;2023-03-05T04:07:12;3.20;99.90
30381;DHT22;17169;50.966;11.038;2023-03-05T04:10:16;3.20;99.90
30381;DHT22;17169;50.966;11.038;2023-03-05T04:13:18;3.20;99.90
30381;DHT22;17169;50.966;11.038;2023-03-05T04:16:21;3.10;99.90
30381;DHT22;17169;50.966;11.038;2023-03-05T04:19:24;3.10;99.90
30381;DHT22;17169;50.966;11.038;2023-03-05T04:22:28;3.10;99.90
30381;DHT22;17169;50.966;11.038;2023-03-05T04:25:32;3.10;99.90
30381;DHT22;17169;50.966;11.038;2023-03-05T04:28:34;3.20;99.90
30381;DHT22;17169;50.966;11.038;2023-03-05T04:31:37;3.10;99.90
30381;DHT22;17169;50.966;11.038;2023-03-05T04:34:39;3.10;99.90
30381;DHT22;17169;50.966;11.038;2023-03-05T04:37:41;3.20;99.90
30381;DHT22;17169;50.966;11.038;2023-03-05T04:40:45;3.10;99.90
30381;DHT22;17169;50.966;11.038;2023-03-05T04:43:48;3.10;99.90
30381;DHT22;17169;50.966;11.038;2023-03-05T04:46:50;3.10;99.90
30381;DHT22;17169;50.966;11.038;2023-03-05T04:49:53;3.10;99.90
30381;DHT22;17169;50.966;11.038;2023-03-05T04:52:55;3.00;99.90
30381;DHT22;17169;50.966;11.038;2023-03-05T04:55:59;3.00;99.90
30381;DHT22;17169;50.966;11.038;2023-03-05T04:59:02;3.10;99.90
30381;DHT22;17169;50.966;11.038;2023-03-05T05:02:04;3.10;99.90
30381;DHT22;17169;50.966;11.038;2023-03-05T05:05:08;3.10;99.90
30381;DHT22;17169;50.966;11.038;2023-03-05T05:08:10;3.10;99.90
30381;DHT22;17169;50.966;11.038;2023-03-05T05:11:14;3.10;99.90
30381;DHT22;17169;50.966;11.038;2023-03-05T05:14:16;3.10;99.90
30381;DHT22;17169;50.966;11.038;2023-03-05T05:17:19;3.10;99.90
30381;DHT22;17169;50.966;11.038;2023-03-05T05:20:21;3.10;99.90
30381;DHT22;17169;50.966;11.038;2023-03-05T05:23:24;3.10;99.90
30381;DHT22;17169;50.966;11.038;2023-03-05T05:26:27;3.10;99.90
30381;DHT22;17169;50.966;11.038;2023-03-05T05:29:30;3.10;99.90
30381;DHT22;17169;50.966;11.038;2023-03-05T05:32:32;3.10;99.90
30381;DHT22;17169;50.966;11.038;2023-03-05T05:35:38;3.10;99.90
30381;DHT22;17169;50.966;11.038;2023-03-05T05:38:41;3.10;99.90
30381;DHT22;17169;50.966;11.038;2023-03-05T05:41:44;3.10;99.90
30381;DHT22;17169;50.966;11.038;2023-03-05T05:44:47;3.10;99.90
30381;DHT22;17169;50.966;11.038;2023-03-05T05:47:50;3.10;99.90
30381;DHT22;17169;50.966;11.038;2023-03-05T05:50:52;3.10;99.90
30381;DHT22;17169;50.966;11.038;2023-03-05T05:53:54;3.10;99.90
30381;DHT22;17169;50.966;11.038;2023-03-05T05:56:58;3.10;99.90
30381;DHT22;17169;50.966;11.038;2023-03-05T06:00:01;3.10;99.90
30381;DHT22;17169;50.966;11.038;2023-03-05T06:03:04;3.10;99.90
30381;DHT22;17169;50.966;11.038;2023-03-05T06:06:08;3.10;99.90
30381;DHT22;17169;50.966;11.038;2023-03-05T06:09:11;3.10;99.90
30381;DHT22;17169;50.966;11.038;2023-03-05T06:12:15;3.10;99.90
30381;DHT22;17169;50.966;11.038;2023-03-05T06:15:17;3.10;99.90
30381;DHT22;17169;50.966;11.038;2023-03-05T06:18:20;3.10;99.90
30381;DHT22;17169;50.966;11.038;2023-03-05T06:21:22;3.00;99.90
30381;DHT22;17169;50.966;11.038;2023-03-05T06:24:25;3.10;99.90
30381;DHT22;17169;50.966;11.038;2023-03-05T06:27:28;3.00;99.90
30381;DHT22;17169;50.966;11.038;2023-03-05T06:30:31;3.00;99.90
30381;DHT22;17169;50.966;11.038;2023-03-05T06:33:33;3.00;99.90
30381;DHT22;17169;50.966;11.038;2023-03-05T06:36:36;3.00;99.90
30381;DHT22;17169;50.966;11.038;2023-03-05T06:39:40;3.00;99.90
30381;DHT22;17169;50.966;11.038;2023-03-05T06:42:44;2.90;99.90
30381;DHT22;17169;50.966;11.038;2023-03-05T06:45:46;3.00;99.90
30381;DHT22;17169;50.966;11.038;2023-03-05T06:48:49;2.90;99.90
30381;DHT22;17169;50.966;11.038;2023-03-05T06:51:52;3.00;99.90
30381;DHT22;17169;50.966;11.038;2023-03-05T06:54:54;3.00;99.90
30381;DHT22;17169;50.966;11.038;2023-03-05T06:57:58;3.00;99.90
30381;DHT22;17169;50.966;11.038;2023-03-05T07:01:01;3.00;99.90
30381;DHT22;17169;50.966;11.038;2023-03-05T07:04:05;3.00;99.90
30381;DHT22;17169;50.966;11.038;2023-03-05T07:07:08;3.00;99.90
30381;DHT22;17169;50.966;11.038;2023-03-05T07:10:11;3.10;99.90
30381;DHT22;17169;50.966;11.038;2023-03-05T07:13:15;3.10;99.90
30381;DHT22;17169;50.966;11.038;2023-03-05T07:16:19;3.10;99.90
30381;DHT22;17169;50.966;11.038;2023-03-05T07:19:22;3.20;99.90
30381;DHT22;17169;50.966;11.038;2023-03-05T07:22:24;3.20;99.90
30381;DHT22;17169;50.966;11.038;2023-03-05T07:25:27;3.30;99.90
30381;DHT22;17169;50.966;11.038;2023-03-05T07:28:31;3.30;99.90
30381;DHT22;17169;50.966;11.038;2023-03-05T07:31:34;3.20;99.90
30381;DHT22;17169;50.966;11.038;2023-03-05T07:34:37;3.30;99.90
30381;DHT22;17169;50.966;11.038;2023-03-05T07:37:39;3.30;99.90
30381;DHT22;17169;50.966;11.038;2023-03-05T07:40:42;3.40;99.90
30381;DHT22;17169;50.966;11.038;2023-03-05T07:43:46;3.40;99.90
30381;DHT22;17169;50.966;11.038;2023-03-05T07:46:49;3.50;99.90
30381;DHT22;17169;50.966;11.038;2023-03-05T07:49:51;3.50;99.90
30381;DHT22;17169;50.966;11.038;2023-03-05T07:52:53;3.50;99.90
30381;DHT22;17169;50.966;11.038;2023-03-05T07:55:56;3.60;99.90
30381;DHT22;17169;50.966;11.038;2023-03-05T07:59:01;3.70;99.90
30381;DHT22;17169;50.966;11.038;2023-03-05T08:02:05;3.70;99.90
30381;DHT22;17169;50.966;11.038;2023-03-05T08:05:07;3.70;99.90
30381;DHT22;17169;50.966;11.038;2023-03-05T08:08:10;3.80;99.90
30381;DHT22;17169;50.966;11.038;2023-03-05T08:11:13;3.90;99.90
30381;DHT22;17169;50.966;11.038;2023-03-05T08:14:17;3.90;99.90
30381;DHT22;17169;50.966;11.038;2023-03-05T08:17:20;3.90;99.90
30381;DHT22;17169;50.966;11.038;2023-03-05T08:20:22;3.80;99.90
30381;DHT22;17169;50.966;11.038;2023-03-05T08:23:25;3.80;99.90
30381;DHT22;17169;50.966;11.038;2023-03-05T08:26:28;3.80;99.90
30381;DHT22;17169;50.966;11.038;2023-03-05T08:29:33;3.70;99.90
30381;DHT22;17169;50.966;11.038;2023-03-05T08:32:35;3.70;99.90
30381;DHT22;17169;50.966;11.038;2023-03-05T08:35:38;3.70;99.90
30381;DHT22;17169;50.966;11.038;2023-03-05T08:38:40;3.70;99.90
30381;DHT22;17169;50.966;11.038;2023-03-05T08:41:44;3.80;99.90
30381;DHT22;17169;50.966;11.038;2023-03-05T08:44:48;3.90;99.90
30381;DHT22;17169;50.966;11.038;2023-03-05T08:47:50;3.90;99.90
30381;DHT22;17169;50.966;11.038;2023-03-05T08:50:53;4.00;99.90
30381;DHT22;17169;50.966;11.038;2023-03-05T08:53:57;4.10;99.90
30381;DHT22;17169;50.966;11.038;2023-03-05T08:57:00;4.10;99.90
30381;DHT22;17169;50.966;11.038;2023-03-05T09:00:06;4.20;99.90
30381;DHT22;17169;50.966;11.038;2023-03-05T09:03:10;4.20;99.90
30381;DHT22;17169;50.966;11.038;2023-03-05T09:06:12;4.30;99.90
30381;DHT22;17169;50.966;11.038;2023-03-05T09:09:14;4.30;99.90
30381;DHT22;17169;50.966;11.038;2023-03-05T09:12:17;4.50;99.90
30381;DHT22;17169;50.966;11.038;2023-03-05T09:15:20;4.60;99.90
30381;DHT22;17169;50.966;11.038;2023-03-05T09:18:23;4.70;99.90
30381;DHT22;17169;50.966;11.038;2023-03-05T09:21:25;4.80;99.90
30381;DHT22;17169;50.966;11.038;2023-03-05T09:24:28;5.00;99.90
30381;DHT22;17169;50.966;11.038;2023-03-05T09:27:32;5.10;99.90
30381;DHT22;17169;50.966;11.038;2023-03-05T09:30:36;5.10;99.90
30381;DHT22;17169;50.966;11.038;2023-03-05T09:33:39;5.00;99.90
30381;DHT22;17169;50.966;11.038;2023-03-05T09:36:41;4.90;99.90
30381;DHT22;17169;50.966;11.038;2023-03-05T09:39:44;4.90;99.90
30381;DHT22;17169;50.966;11.038;2023-03-05T09:43:02;4.80;99.90
30381;DHT22;17169;50.966;11.038;2023-03-05T09:46:17;4.80;99.90
30381;DHT22;17169;50.966;11.038;2023-03-05T09:49:39;4.80;99.90
30381;DHT22;17169;50.966;11.038;2023-03-05T09:52:46;4.90;99.90
30381;DHT22;17169;50.966;11.038;2023-03-05T09:55:53;4.90;99.90
30381;DHT22;17169;50.966;11.038;2023-03-05T09:58:59;5.00;99.90
30381;DHT22;17169;50.966;11.038;2023-03-05T10:02:16;5.20;99.90
30381;DHT22;17169;50.966;11.038;2023-03-05T10:05:23;5.30;99.90
30381;DHT22;17169;50.966;11.038;2023-03-05T10:08:32;5.40;99.90
30381;DHT22;17169;50.966;11.038;2023-03-05T10:11:46;5.50;99.90
30381;DHT22;17169;50.966;11.038;2023-03-05T10:14:50;5.50;99.90
30381;DHT22;17169;50.966;11.038;2023-03-05T10:18:04;5.50;99.90
30381;DHT22;17169;50.966;11.038;2023-03-05T10:21:12;5.50;99.90
30381;DHT22;17169;50.966;11.038;2023-03-05T10:24:23;5.60;99.90
30381;DHT22;17169;50.966;11.038;2023-03-05T10:27:36;5.70;99.90
30381;DHT22;17169;50.966;11.038;2023-03-05T10:30:58;5.60;99.90
30381;DHT22;17169;50.966;11.038;2023-03-05T10:34:17;5.50;99.90
30381;DHT22;17169;50.966;11.038;2023-03-05T10:37:47;5.60;99.90
30381;DHT22;17169;50.966;11.038;2023-03-05T10:40:55;5.60;99.90
30381;DHT22;17169;50.966;11.038;2023-03-05T10:44:03;5.70;99.90
30381;DHT22;17169;50.966;11.038;2023-03-05T10:47:14;5.60;99.90
30381;DHT22;17169;50.966;11.038;2023-03-05T10:50:21;5.70;99.90
30381;DHT22;17169;50.966;11.038;2023-03-05T10:53:27;5.60;99.90
30381;DHT22;17169;50.966;11.038;2023-03-05T10:56:29;5.60;99.90
30381;DHT22;17169;50.966;11.038;2023-03-05T10:59:32;5.70;99.90
30381;DHT22;17169;50.966;11.038;2023-03-05T11:02:52;5.70;99.90
30381;DHT22;17169;50.966;11.038;2023-03-05T11:06:00;5.70;99.90
30381;DHT22;17169;50.966;11.038;2023-03-05T11:09:19;5.80;99.90
30381;DHT22;17169;50.966;11.038;2023-03-05T11:12:25;5.90;99.90
30381;DHT22;17169;50.966;11.038;2023-03-05T11:15:29;5.80;99.90
30381;DHT22;17169;50.966;11.038;2023-03-05T11:18:33;5.80;99.90
30381;DHT22;17169;50.966;11.038;2023-03-05T11:21:37;5.80;99.90
30381;DHT22;17169;50.966;11.038;2023-03-05T11:24:39;5.70;99.90
30381;DHT22;17169;50.966;11.038;2023-03-05T11:27:48;5.80;99.90
30381;DHT22;17169;50.966;11.038;2023-03-05T11:30:56;5.80;99.90
30381;DHT22;17169;50.966;11.038;2023-03-05T11:34:00;5.80;99.90
30381;DHT22;17169;50.966;11.038;2023-03-05T11:37:05;5.90;99.90
30381;DHT22;17169;50.966;11.038;2023-03-05T11:40:18;5.80;99.90
30381;DHT22;17169;50.966;11.038;2023-03-05T11:43:23;5.80;99.90
30381;DHT22;17169;50.966;11.038;2023-03-05T11:46:26;5.80;99.90
30381;DHT22;17169;50.966;11.038;2023-03-05T11:49:30;5.90;99.90
30381;DHT22;17169;50.966;11.038;2023-03-05T11:52:40;5.80;99.90
30381;DHT22;17169;50.966;11.038;2023-03-05T11:55:48;5.70;99.90
30381;DHT22;17169;50.966;11.038;2023-03-05T11:58:58;5.70;99.90
30381;DHT22;17169;50.966;11.038;2023-03-05T12:02:01;5.80;99.90
30381;DHT22;17169;50.966;11.038;2023-03-05T12:05:05;5.80;99.90
30381;DHT22;17169;50.966;11.038;2023-03-05T12:08:13;5.80;99.90
30381;DHT22;17169;50.966;11.038;2023-03-05T12:11:18;5.70;99.90
30381;DHT22;17169;50.966;11.038;2023-03-05T12:14:23;5.80;99.90
30381;DHT22;17169;50.966;11.038;2023-03-05T12:17:30;5.80;99.90
30381;DHT22;17169;50.966;11.038;2023-03-05T12:20:39;5.80;99.90
30381;DHT22;17169;50.966;11.038;2023-03-05T12:23:48;5.70;99.90
30381;DHT22;17169;50.966;11.038;2023-03-05T12:26:55;5.60;99.90
30381;DHT22;17169;50.966;11.038;2023-03-05T12:34:40;5.60;99.90
30381;DHT22;17169;50.966;11.038;2023-03-05T12:38:04;5.70;99.90
30381;DHT22;17169;50.966;11.038;2023-03-05T12:44:40;5.70;99.90
30381;DHT22;17169;50.966;11.038;2023-03-05T12:47:44;5.70;99.90
30381;DHT22;17169;50.966;11.038;2023-03-05T12:50:48;5.70;99.90
30381;DHT22;17169;50.966;11.038;2023-03-05T12:53:52;5.70;99.90
30381;DHT22;17169;50.966;11.038;2023-03-05T12:56:56;5.70;99.90
30381;DHT22;17169;50.966;11.038;2023-03-05T13:00:05;5.60;99.90
30381;DHT22;17169;50.966;11.038;2023-03-05T13:03:14;5.60;99.90
30381;DHT22;17169;50.966;11.038;2023-03-05T13:06:24;5.50;99.90
30381;DHT22;17169;50.966;11.038;2023-03-05T13:09:28;5.40;99.90
30381;DHT22;17169;50.966;11.038;2023-03-05T13:12:34;5.30;99.90
30381;DHT22;17169;50.966;11.038;2023-03-05T13:15:44;5.30;99.90
30381;DHT22;17169;50.966;11.038;2023-03-05T13:18:47;5.40;99.90
30381;DHT22;17169;50.966;11.038;2023-03-05T13:21:58;5.30;99.90
30381;DHT22;17169;50.966;11.038;2023-03-05T13:25:13;5.30;99.90
30381;DHT22;17169;50.966;11.038;2023-03-05T13:28:16;5.30;99.90
30381;DHT22;17169;50.966;11.038;2023-03-05T13:31:19;5.30;99.90
30381;DHT22;17169;50.966;11.038;2023-03-05T13:34:24;5.30;99.90
30381;DHT22;17169;50.966;11.038;2023-03-05T13:37:29;5.20;99.90
30381;DHT22;17169;50.966;11.038;2023-03-05T13:40:32;5.20;99.90
30381;DHT22;17169;50.966;11.038;2023-03-05T13:43:41;5.20;99.90
30381;DHT22;17169;50.966;11.038;2023-03-05T13:46:45;5.10;99.90
30381;DHT22;17169;50.966;11.038;2023-03-05T13:49:55;5.00;99.90
30381;DHT22;17169;50.966;11.038;2023-03-05T13:53:15;4.90;99.90
30381;DHT22;17169;50.966;11.038;2023-03-05T13:56:19;4.90;99.90
30381;DHT22;17169;50.966;11.038;2023-03-05T13:59:23;5.00;99.90
30381;DHT22;17169;50.966;11.038;2023-03-05T14:02:28;5.10;99.90
30381;DHT22;17169;50.966;11.038;2023-03-05T14:05:30;5.20;99.90
30381;DHT22;17169;50.966;11.038;2023-03-05T14:08:32;5.30;99.90
30381;DHT22;17169;50.966;11.038;2023-03-05T14:11:35;5.30;99.90
30381;DHT22;17169;50.966;11.038;2023-03-05T14:14:37;5.40;99.90
30381;DHT22;17169;50.966;11.038;2023-03-05T14:17:42;5.20;99.90
30381;DHT22;17169;50.966;11.038;2023-03-05T14:21:02;5.30;99.90
30381;DHT22;17169;50.966;11.038;2023-03-05T14:24:11;5.30;99.90
30381;DHT22;17169;50.966;11.038;2023-03-05T14:27:16;5.30;99.90
30381;DHT22;17169;50.966;11.038;2023-03-05T14:30:23;5.40;99.90
30381;DHT22;17169;50.966;11.038;2023-03-05T14:33:29;5.40;99.90
30381;DHT22;17169;50.966;11.038;2023-03-05T14:36:33;5.40;99.90
30381;DHT22;17169;50.966;11.038;2023-03-05T14:39:42;5.50;99.90
30381;DHT22;17169;50.966;11.038;2023-03-05T14:42:51;5.50;99.90
30381;DHT22;17169;50.966;11.038;2023-03-05T14:45:55;5.50;99.90
30381;DHT22;17169;50.966;11.038;2023-03-05T14:48:59;5.50;99.90
30381;DHT22;17169;50.966;11.038;2023-03-05T14:52:02;5.50;99.90
30381;DHT22;17169;50.966;11.038;2023-03-05T14:55:09;5.50;99.90
30381;DHT22;17169;50.966;11.038;2023-03-05T14:58:16;5.50;99.90
30381;DHT22;17169;50.966;11.038;2023-03-05T15:01:20;5.50;99.90
30381;DHT22;17169;50.966;11.038;2023-03-05T15:04:24;5.50;99.90
30381;DHT22;17169;50.966;11.038;2023-03-05T15:07:28;5.50;99.90
30381;DHT22;17169;50.966;11.038;2023-03-05T15:10:31;5.60;99.90
30381;DHT22;17169;50.966;11.038;2023-03-05T15:13:34;5.60;99.90
30381;DHT22;17169;50.966;11.038;2023-03-05T15:16:45;5.50;99.90
30381;DHT22;17169;50.966;11.038;2023-03-05T15:19:50;5.50;99.90
30381;DHT22;17169;50.966;11.038;2023-03-05T15:22:53;5.50;99.90
30381;DHT22;17169;50.966;11.038;2023-03-05T15:25:56;5.40;99.90
30381;DHT22;17169;50.966;11.038;2023-03-05T15:29:03;5.40;99.90
30381;DHT22;17169;50.966;11.038;2023-03-05T15:32:06;5.40;99.90
30381;DHT22;17169;50.966;11.038;2023-03-05T15:35:10;5.50;99.90
30381;DHT22;17169;50.966;11.038;2023-03-05T15:38:12;5.60;99.90
30381;DHT22;17169;50.966;11.038;2023-03-05T15:41:15;5.60;99.90
30381;DHT22;17169;50.966;11.038;2023-03-05T15:44:18;5.70;99.90
30381;DHT22;17169;50.966;11.038;2023-03-05T15:47:20;5.60;99.90
30381;DHT22;17169;50.966;11.038;2023-03-05T15:50:24;5.60;99.90
30381;DHT22;17169;50.966;11.038;2023-03-05T15:53:27;5.60;99.90
30381;DHT22;17169;50.966;11.038;2023-03-05T15:56:29;5.60;99.90
30381;DHT22;17169;50.966;11.038;2023-03-05T15:59:32;5.60;99.90
30381;DHT22;17169;50.966;11.038;2023-03-05T16:02:34;5.50;99.90
30381;DHT22;17169;50.966;11.038;2023-03-05T16:05:38;5.50;99.90
30381;DHT22;17169;50.966;11.038;2023-03-05T16:08:42;5.40;99.90
30381;DHT22;17169;50.966;11.038;2023-03-05T16:11:45;5.50;99.90
30381;DHT22;17169;50.966;11.038;2023-03-05T16:14:49;5.50;99.90
30381;DHT22;17169;50.966;11.038;2023-03-05T16:17:53;5.40;99.90
30381;DHT22;17169;50.966;11.038;2023-03-05T16:20:58;5.40;99.90
30381;DHT22;17169;50.966;11.038;2023-03-05T16:24:02;5.30;99.90
30381;DHT22;17169;50.966;11.038;2023-03-05T16:27:05;5.20;99.90
30381;DHT22;17169;50.966;11.038;2023-03-05T16:30:08;5.20;99.90
30381;DHT22;17169;50.966;11.038;2023-03-05T16:33:11;5.20;99.90
30381;DHT22;17169;50.966;11.038;2023-03-05T16:36:21;5.10;99.90
30381;DHT22;17169;50.966;11.038;2023-03-05T16:39:23;5.00;99.90
30381;DHT22;17169;50.966;11.038;2023-03-05T16:42:26;4.90;99.90
30381;DHT22;17169;50.966;11.038;2023-03-05T16:45:28;4.80;99.90
30381;DHT22;17169;50.966;11.038;2023-03-05T16:48:31;4.70;99.90
30381;DHT22;17169;50.966;11.038;2023-03-05T16:51:34;4.60;99.90
30381;DHT22;17169;50.966;11.038;2023-03-05T16:54:37;4.60;99.90
30381;DHT22;17169;50.966;11.038;2023-03-05T16:57:41;4.50;99.90
30381;DHT22;17169;50.966;11.038;2023-03-05T17:00:43;4.40;99.90
30381;DHT22;17169;50.966;11.038;2023-03-05T17:03:46;4.40;99.90
30381;DHT22;17169;50.966;11.038;2023-03-05T17:06:50;4.40;99.90
30381;DHT22;17169;50.966;11.038;2023-03-05T17:09:54;4.40;99.90
30381;DHT22;17169;50.966;11.038;2023-03-05T17:12:56;4.40;99.90
30381;DHT22;17169;50.966;11.038;2023-03-05T17:15:59;4.40;99.90
30381;DHT22;17169;50.966;11.038;2023-03-05T17:19:02;4.40;99.90
30381;DHT22;17169;50.966;11.038;2023-03-05T17:22:05;4.40;99.90
30381;DHT22;17169;50.966;11.038;2023-03-05T17:25:08;4.40;99.90
30381;DHT22;17169;50.966;11.038;2023-03-05T17:28:11;4.30;99.90
30381;DHT22;17169;50.966;11.038;2023-03-05T17:31:14;4.30;99.90
30381;DHT22;17169;50.966;11.038;2023-03-05T17:34:16;4.30;99.90
30381;DHT22;17169;50.966;11.038;2023-03-05T17:37:21;4.30;99.90
30381;DHT22;17169;50.966;11.038;2023-03-05T17:40:24;4.30;99.90
30381;DHT22;17169;50.966;11.038;2023-03-05T17:43:26;4.30;99.90
30381;DHT22;17169;50.966;11.038;2023-03-05T17:46:29;4.30;99.90
30381;DHT22;17169;50.966;11.038;2023-03-05T17:49:31;4.30;99.90
30381;DHT22;17169;50.966;11.038;2023-03-05T17:52:35;4.40;99.90
30381;DHT22;17169;50.966;11.038;2023-03-05T17:55:39;4.30;99.90
30381;DHT22;17169;50.966;11.038;2023-03-05T17:58:42;4.40;99.90
30381;DHT22;17169;50.966;11.038;2023-03-05T18:01:44;4.40;99.90
30381;DHT22;17169;50.966;11.038;2023-03-05T18:04:46;4.40;99.90
30381;DHT22;17169;50.966;11.038;2023-03-05T18:07:53;4.40;99.90
30381;DHT22;17169;50.966;11.038;2023-03-05T18:10:56;4.30;99.90
30381;DHT22;17169;50.966;11.038;2023-03-05T18:13:58;4.30;99.90
30381;DHT22;17169;50.966;11.038;2023-03-05T18:17:01;4.30;99.90
30381;DHT22;17169;50.966;11.038;2023-03-05T18:20:04;4.40;99.90
30381;DHT22;17169;50.966;11.038;2023-03-05T18:23:09;4.40;99.90
30381;DHT22;17169;50.966;11.038;2023-03-05T18:26:11;4.40;99.90
30381;DHT22;17169;50.966;11.038;2023-03-05T18:29:14;4.50;99.90
30381;DHT22;17169;50.966;11.038;2023-03-05T18:32:16;4.60;99.90
30381;DHT22;17169;50.966;11.038;2023-03-05T18:35:18;4.50;99.90
30381;DHT22;17169;50.966;11.038;2023-03-05T18:38:24;4.50;99.90
30381;DHT22;17169;50.966;11.038;2023-03-05T18:41:27;4.50;99.90
30381;DHT22;17169;50.966;11.038;2023-03-05T18:44:31;4.50;99.90
30381;DHT22;17169;50.966;11.038;2023-03-05T18:47:33;4.30;99.90
30381;DHT22;17169;50.966;11.038;2023-03-05T18:50:36;4.30;99.90
30381;DHT22;17169;50.966;11.038;2023-03-05T18:53:39;4.30;99.90
30381;DHT22;17169;50.966;11.038;2023-03-05T18:56:42;4.30;99.90
30381;DHT22;17169;50.966;11.038;2023-03-05T18:59:44;4.20;99.90
30381;DHT22;17169;50.966;11.038;2023-03-05T19:02:46;4.20;99.90
30381;DHT22;17169;50.966;11.038;2023-03-05T19:05:49;4.10;99.90
30381;DHT22;17169;50.966;11.038;2023-03-05T19:08:54;4.10;99.90
30381;DHT22;17169;50.966;11.038;2023-03-05T19:11:58;4.10;99.90
30381;DHT22;17169;50.966;11.038;2023-03-05T19:15:02;4.00;99.90
30381;DHT22;17169;50.966;11.038;2023-03-05T19:18:04;4.00;99.90
30381;DHT22;17169;50.966;11.038;2023-03-05T19:21:07;4.00;99.90
30381;DHT22;17169;50.966;11.038;2023-03-05T19:24:11;3.90;99.90
30381;DHT22;17169;50.966;11.038;2023-03-05T19:27:13;3.90;99.90
30381;DHT22;17169;50.966;11.038;2023-03-05T19:30:16;3.90;99.90
30381;DHT22;17169;50.966;11.038;2023-03-05T19:33:18;3.90;99.90